PWSweather.com
Personal Weather Stations
Station Observations
MACKBIG
Historic Main Street, Unionville, ON L3R6A5

Historic Main StreetUnionville, ON L3R6A5

Lat: 43.875506, Lon: -79.312903

Elevation: 590

Station Type: Davis VP2 + 6163

http://www.mackweather.com

Latest ConditionsUpdated 10:10:08 AM EDT Friday, Oct 31, 2014
Currently Today's Max Today's Min Today's Average
Temperature 42.4°F5.8°C 42.4°F5.8°C 41.3°F5.2°C 41.8°F5.4°C
Dew Point 40.5°F4.7°C 40.5°F4.7°C 37.4°F3.0°C 38.9°F3.8°C
Winds 3.0 mph ESE4.8 kmh ESE 3.0 mph ESE4.8 kmh ESE - 0.2 mph 0.3 kmh
Wind Gusts 3.0 mph4.8 kmh 5.0 mph8.0 kmh - -
Humidity 93% 93% 84% 89%
Pressure 29.93 in1013.5 mb 29.98 in1015.2 mb 29.93 in1013.5 mb -
Precipitation - 0.13 in3.3 mm - -
Hour Temp Dew Point Humidity Winds Wind Gusts Pressure Precip Precip Rate Daily Precip Total
10:10 AM 42.4°F5.8°C 40.5°F4.7°C 93% 3.0 mph ESE4.8 kmh ESE 3.0 mph4.8 kmh 29.93 in1013.5 mb 0.00 in0.0 mm 0.00 in/hr0.0 mm/hr 0.13 in3.3 mm
10:00 AM 42.4°F5.8°C 40.2°F4.6°C 92% 1.0 mph ESE1.6 kmh ESE 5.0 mph8.0 kmh 29.93 in1013.5 mb 0.01 in0.3 mm 0.01 in/hr0.3 mm/hr 0.13 in3.3 mm
09:50 AM 42.3°F5.7°C 40.5°F4.7°C 93% Calm Calm -- 29.94 in1013.9 mb 0.00 in0.0 mm 0.00 in/hr0.0 mm/hr 0.12 in3.0 mm
09:40 AM 42.2°F5.7°C 40.0°F4.4°C 92% 1.0 mph ESE1.6 kmh ESE 3.0 mph4.8 kmh 29.94 in1013.9 mb 0.01 in0.3 mm 0.06 in/hr1.5 mm/hr 0.12 in3.0 mm
09:30 AM 42.0°F5.6°C 39.8°F4.3°C 92% Calm Calm -- 29.94 in1013.9 mb 0.01 in0.3 mm 0.06 in/hr1.5 mm/hr 0.11 in2.8 mm
09:20 AM 41.9°F5.5°C 39.7°F4.3°C 92% Calm Calm 2.0 mph3.2 kmh 29.94 in1013.9 mb 0.02 in0.5 mm 0.12 in/hr3.0 mm/hr 0.11 in2.8 mm
09:10 AM 41.8°F5.4°C 39.6°F4.2°C 92% Calm Calm -- 29.94 in1013.9 mb 0.00 in0.0 mm 0.00 in/hr0.0 mm/hr 0.09 in2.3 mm
09:00 AM 41.8°F5.4°C 39.6°F4.2°C 92% Calm Calm -- 29.94 in1013.9 mb 0.01 in0.3 mm 0.01 in/hr0.3 mm/hr 0.09 in2.3 mm
08:50 AM 41.6°F5.3°C 39.5°F4.2°C 92% Calm Calm -- 29.94 in1013.9 mb 0.01 in0.3 mm 0.06 in/hr1.5 mm/hr 0.09 in2.3 mm
08:40 AM 41.6°F5.3°C 39.4°F4.1°C 92% Calm Calm -- 29.94 in1013.9 mb 0.01 in0.3 mm 0.06 in/hr1.5 mm/hr 0.08 in2.0 mm
08:30 AM 41.5°F5.3°C 39.4°F4.1°C 92% Calm Calm -- 29.94 in1013.9 mb 0.01 in0.3 mm 0.06 in/hr1.5 mm/hr 0.07 in1.8 mm
08:20 AM 41.5°F5.3°C 39.3°F4.1°C 92% Calm Calm 1.0 mph1.6 kmh 29.94 in1013.9 mb 0.00 in0.0 mm 0.00 in/hr0.0 mm/hr 0.06 in1.5 mm
08:10 AM 41.4°F5.2°C 39.0°F3.9°C 91% Calm Calm -- 29.94 in1013.9 mb 0.01 in0.3 mm 0.06 in/hr1.5 mm/hr 0.06 in1.5 mm
08:00 AM 41.3°F5.2°C 38.9°F3.8°C 91% 2.0 mph ESE3.2 kmh ESE 3.0 mph4.8 kmh 29.93 in1013.5 mb 0.00 in0.0 mm 0.00 in/hr0.0 mm/hr 0.06 in1.5 mm
07:50 AM 41.3°F5.2°C 38.9°F3.8°C 91% 1.0 mph ESE1.6 kmh ESE 2.0 mph3.2 kmh 29.93 in1013.5 mb 0.01 in0.3 mm 0.06 in/hr1.5 mm/hr 0.06 in1.5 mm
07:40 AM 41.4°F5.2°C 39.0°F3.9°C 91% 1.0 mph ESE1.6 kmh ESE 3.0 mph4.8 kmh 29.93 in1013.5 mb 0.00 in0.0 mm 0.00 in/hr0.0 mm/hr 0.05 in1.3 mm
07:30 AM 41.4°F5.2°C 39.0°F3.9°C 91% Calm Calm -- 29.93 in1013.5 mb 0.01 in0.3 mm 0.06 in/hr1.5 mm/hr 0.05 in1.3 mm
07:20 AM 41.4°F5.2°C 39.0°F3.9°C 91% Calm Calm -- 29.93 in1013.5 mb 0.00 in0.0 mm 0.00 in/hr0.0 mm/hr 0.04 in1.0 mm
07:10 AM 41.4°F5.2°C 39.0°F3.9°C 91% Calm Calm 2.0 mph3.2 kmh 29.93 in1013.5 mb 0.00 in0.0 mm 0.00 in/hr0.0 mm/hr 0.04 in1.0 mm
07:00 AM 41.5°F5.3°C 39.1°F3.9°C 91% Calm Calm -- 29.93 in1013.5 mb 0.00 in0.0 mm 0.00 in/hr0.0 mm/hr 0.04 in1.0 mm
06:50 AM 41.6°F5.3°C 39.2°F4.0°C 91% 2.0 mph WSW3.2 kmh WSW 3.0 mph4.8 kmh 29.93 in1013.5 mb 0.01 in0.3 mm 0.06 in/hr1.5 mm/hr 0.04 in1.0 mm
06:40 AM 41.6°F5.3°C 39.2°F4.0°C 91% Calm Calm -- 29.93 in1013.5 mb 0.00 in0.0 mm 0.00 in/hr0.0 mm/hr 0.03 in0.8 mm
06:30 AM 41.7°F5.4°C 39.0°F3.9°C 90% 1.0 mph W1.6 kmh W 5.0 mph8.0 kmh 29.93 in1013.5 mb 0.00 in0.0 mm 0.00 in/hr0.0 mm/hr 0.03 in0.8 mm
06:20 AM 41.7°F5.4°C 39.0°F3.9°C 90% 1.0 mph W1.6 kmh W 2.0 mph3.2 kmh 29.93 in1013.5 mb 0.00 in0.0 mm 0.00 in/hr0.0 mm/hr 0.03 in0.8 mm
06:10 AM 41.8°F5.4°C 39.1°F3.9°C 90% Calm Calm 2.0 mph3.2 kmh 29.93 in1013.5 mb 0.00 in0.0 mm 0.00 in/hr0.0 mm/hr 0.03 in0.8 mm
06:00 AM 41.8°F5.4°C 39.1°F3.9°C 90% Calm Calm -- 29.93 in1013.5 mb 0.00 in0.0 mm 0.00 in/hr0.0 mm/hr 0.03 in0.8 mm
05:50 AM 41.8°F5.4°C 39.1°F3.9°C 90% Calm Calm -- 29.93 in1013.5 mb 0.00 in0.0 mm 0.00 in/hr0.0 mm/hr 0.03 in0.8 mm
05:40 AM 41.9°F5.5°C 39.2°F4.0°C 90% 1.0 mph W1.6 kmh W 2.0 mph3.2 kmh 29.94 in1013.9 mb 0.00 in0.0 mm 0.00 in/hr0.0 mm/hr 0.03 in0.8 mm
05:30 AM 41.9°F5.5°C 39.2°F4.0°C 90% Calm Calm -- 29.94 in1013.9 mb 0.00 in0.0 mm 0.00 in/hr0.0 mm/hr 0.03 in0.8 mm
05:20 AM 42.0°F5.6°C 39.3°F4.1°C 90% Calm Calm -- 29.94 in1013.9 mb 0.00 in0.0 mm 0.00 in/hr0.0 mm/hr 0.03 in0.8 mm
05:10 AM 42.0°F5.6°C 39.3°F4.1°C 90% Calm Calm -- 29.94 in1013.9 mb 0.00 in0.0 mm 0.00 in/hr0.0 mm/hr 0.03 in0.8 mm
05:00 AM 42.0°F5.6°C 39.3°F4.1°C 90% Calm Calm -- 29.94 in1013.9 mb 0.00 in0.0 mm 0.00 in/hr0.0 mm/hr 0.03 in0.8 mm
04:50 AM 42.1°F5.6°C 39.4°F4.1°C 90% Calm Calm -- 29.94 in1013.9 mb 0.01 in0.3 mm 0.06 in/hr1.5 mm/hr 0.03 in0.8 mm
04:40 AM 42.1°F5.6°C 39.1°F3.9°C 89% Calm Calm -- 29.95 in1014.2 mb 0.00 in0.0 mm 0.00 in/hr0.0 mm/hr 0.02 in0.5 mm
04:30 AM 42.1°F5.6°C 39.1°F3.9°C 89% Calm Calm -- 29.95 in1014.2 mb 0.00 in0.0 mm 0.00 in/hr0.0 mm/hr 0.02 in0.5 mm
04:20 AM 42.1°F5.6°C 39.1°F3.9°C 89% Calm Calm -- 29.95 in1014.2 mb 0.01 in0.3 mm 0.06 in/hr1.5 mm/hr 0.02 in0.5 mm
04:10 AM 42.1°F5.6°C 39.1°F3.9°C 89% Calm Calm -- 29.95 in1014.2 mb 0.00 in0.0 mm 0.00 in/hr0.0 mm/hr 0.02 in0.5 mm
04:00 AM 42.2°F5.7°C 39.2°F4.0°C 89% Calm Calm -- 29.95 in1014.2 mb 0.00 in0.0 mm 0.00 in/hr0.0 mm/hr 0.02 in0.5 mm
03:50 AM 42.2°F5.7°C 39.2°F4.0°C 89% Calm Calm -- 29.95 in1014.2 mb 0.00 in0.0 mm 0.00 in/hr0.0 mm/hr 0.02 in0.5 mm
03:40 AM 42.2°F5.7°C 39.1°F3.9°C 89% Calm Calm -- 29.95 in1014.2 mb 0.00 in0.0 mm 0.00 in/hr0.0 mm/hr 0.02 in0.5 mm
03:30 AM 42.2°F5.7°C 39.2°F4.0°C 89% Calm Calm -- 29.96 in1014.6 mb 0.00 in0.0 mm 0.00 in/hr0.0 mm/hr 0.02 in0.5 mm
03:20 AM 42.2°F5.7°C 38.9°F3.8°C 88% Calm Calm -- 29.96 in1014.6 mb 0.00 in0.0 mm 0.00 in/hr0.0 mm/hr 0.02 in0.5 mm
03:10 AM 42.2°F5.7°C 38.9°F3.8°C 88% Calm Calm -- 29.96 in1014.6 mb 0.00 in0.0 mm 0.00 in/hr0.0 mm/hr 0.02 in0.5 mm
03:00 AM 42.2°F5.7°C 38.9°F3.8°C 88% Calm Calm -- 29.96 in1014.6 mb 0.01 in0.3 mm 0.01 in/hr0.3 mm/hr 0.02 in0.5 mm
02:50 AM 42.2°F5.7°C 38.9°F3.8°C 88% Calm Calm -- 29.96 in1014.6 mb 0.00 in0.0 mm 0.00 in/hr0.0 mm/hr 0.01 in0.3 mm
02:40 AM 42.1°F5.6°C 38.8°F3.8°C 88% Calm Calm -- 29.96 in1014.6 mb 0.00 in0.0 mm 0.00 in/hr0.0 mm/hr 0.01 in0.3 mm
02:30 AM 42.0°F5.6°C 38.7°F3.7°C 88% Calm Calm -- 29.96 in1014.6 mb 0.00 in0.0 mm 0.00 in/hr0.0 mm/hr 0.01 in0.3 mm
02:20 AM 42.0°F5.6°C 38.7°F3.7°C 88% Calm Calm -- 29.97 in1014.9 mb 0.01 in0.3 mm 0.06 in/hr1.5 mm/hr 0.01 in0.3 mm
02:10 AM 42.0°F5.6°C 38.7°F3.7°C 88% Calm Calm -- 29.96 in1014.6 mb 0.00 in0.0 mm 0.00 in/hr0.0 mm/hr 0.00 in0.0 mm
02:00 AM 41.9°F5.5°C 38.3°F3.5°C 87% Calm Calm -- 29.96 in1014.6 mb 0.00 in0.0 mm 0.00 in/hr0.0 mm/hr 0.00 in0.0 mm
01:50 AM 41.8°F5.4°C 38.3°F3.5°C 87% Calm Calm -- 29.96 in1014.6 mb 0.00 in0.0 mm 0.00 in/hr0.0 mm/hr 0.00 in0.0 mm
01:40 AM 41.8°F5.4°C 38.2°F3.4°C 87% Calm Calm -- 29.97 in1014.9 mb 0.00 in0.0 mm 0.00 in/hr0.0 mm/hr 0.00 in0.0 mm
01:30 AM 41.8°F5.4°C 38.2°F3.4°C 87% Calm Calm -- 29.97 in1014.9 mb 0.00 in0.0 mm 0.00 in/hr0.0 mm/hr 0.00 in0.0 mm
01:20 AM 41.8°F5.4°C 38.2°F3.4°C 87% Calm Calm -- 29.97 in1014.9 mb 0.00 in0.0 mm 0.00 in/hr0.0 mm/hr 0.00 in0.0 mm
01:10 AM 41.6°F5.3°C 37.7°F3.2°C 86% Calm Calm -- 29.97 in1014.9 mb 0.00 in0.0 mm 0.00 in/hr0.0 mm/hr 0.00 in0.0 mm
01:00 AM 41.6°F5.3°C 37.7°F3.2°C 86% Calm Calm -- 29.97 in1014.9 mb 0.00 in0.0 mm 0.00 in/hr0.0 mm/hr 0.00 in0.0 mm
12:50 AM 41.5°F5.3°C 37.6°F3.1°C 86% Calm Calm -- 29.98 in1015.2 mb 0.00 in0.0 mm 0.00 in/hr0.0 mm/hr 0.00 in0.0 mm
12:40 AM 41.5°F5.3°C 37.6°F3.1°C 86% Calm Calm -- 29.98 in1015.2 mb 0.00 in0.0 mm 0.00 in/hr0.0 mm/hr 0.00 in0.0 mm
12:30 AM 41.6°F5.3°C 37.7°F3.2°C 86% Calm Calm -- 29.98 in1015.2 mb 0.00 in0.0 mm 0.00 in/hr0.0 mm/hr 0.00 in0.0 mm
12:20 AM 41.7°F5.4°C 37.6°F3.1°C 85% Calm Calm -- 29.98 in1015.2 mb 0.00 in0.0 mm 0.00 in/hr0.0 mm/hr 0.00 in0.0 mm
12:10 AM 41.7°F5.4°C 37.5°F3.1°C 85% Calm Calm -- 29.98 in1015.2 mb 0.00 in0.0 mm 0.00 in/hr0.0 mm/hr 0.00 in0.0 mm
12:00 AM 41.8°F5.4°C 37.4°F3.0°C 84% Calm Calm -- 29.98 in1015.2 mb 0.00 in0.0 mm 0.00 in/hr0.0 mm/hr 0.00 in0.0 mm